Time;durP1;ratioP1;P1;durP2;ratioP2;P2;SDS_P1;SDS_P2;PMS_P1;PMS_P2;Temp;Humidity;BMP_temperature;BMP_pressure;BME280_temperature;BME280_humidity;BME280_pressure;Samples;Min_cycle;Max_cycle;Signal;HPM_P1;HPM_P2
2021/06/16 00:00:23;;;;;;;7.35;5.22;;;22.60;99.90;;;;;;5089378;28;20036;-62
2021/06/16 00:02:49;;;;;;;8.60;4.88;;;22.50;99.90;;;;;;5073547;28;20028;-62
2021/06/16 00:05:21;;;;;;;7.28;5.30;;;22.40;99.90;;;;;;5073528;28;20039;-62
2021/06/16 00:07:47;;;;;;;9.80;5.40;;;22.40;99.90;;;;;;5073486;28;20496;-61
2021/06/16 00:10:18;;;;;;;10.85;5.70;;;22.40;99.90;;;;;;5088797;28;20037;-62
2021/06/16 00:12:43;;;;;;;8.85;5.38;;;22.30;99.90;;;;;;5072071;28;20408;-62
2021/06/16 00:15:20;;;;;;;7.53;5.18;;;22.40;99.90;;;;;;5072610;28;20032;-62
2021/06/16 00:17:46;;;;;;;11.32;5.43;;;22.30;99.90;;;;;;5073287;28;20039;-62
2021/06/16 00:20:12;;;;;;;9.63;5.88;;;22.20;99.90;;;;;;5073248;28;20089;-62
2021/06/16 00:22:38;;;;;;;8.27;5.53;;;22.20;99.90;;;;;;5089032;28;20035;-62
2021/06/16 00:25:06;;;;;;;9.75;5.15;;;22.20;99.90;;;;;;5088698;28;20393;-62
2021/06/16 00:27:32;;;;;;;9.93;5.90;;;22.20;99.90;;;;;;5072929;28;20029;-62
2021/06/16 00:29:58;;;;;;;47.75;13.85;;;21.90;99.90;;;;;;5072817;28;20063;-62
2021/06/16 00:32:23;;;;;;;11.27;6.55;;;22.00;99.90;;;;;;5073098;28;20473;-62
2021/06/16 00:34:49;;;;;;;8.00;5.60;;;22.00;99.90;;;;;;5072995;28;20555;-62
2021/06/16 00:37:15;;;;;;;12.55;5.63;;;22.10;99.90;;;;;;5072820;28;20107;-62
2021/06/16 00:39:41;;;;;;;8.57;5.20;;;22.10;99.90;;;;;;5072870;28;20027;-62
2021/06/16 00:42:08;;;;;;;11.13;5.45;;;22.10;99.90;;;;;;5073069;28;20516;-62
2021/06/16 00:44:34;;;;;;;10.95;5.63;;;22.00;99.90;;;;;;5088446;28;20033;-62
2021/06/16 00:47:01;;;;;;;8.88;6.13;;;22.10;99.90;;;;;;5088591;28;20461;-62
2021/06/16 00:49:27;;;;;;;11.10;5.90;;;22.00;99.90;;;;;;5072743;28;20410;-62
2021/06/16 00:51:53;;;;;;;10.50;5.88;;;22.10;99.90;;;;;;5072733;28;20033;-62
2021/06/16 00:54:19;;;;;;;9.55;5.72;;;22.00;99.90;;;;;;5072474;28;20036;-62
2021/06/16 00:56:45;;;;;;;10.63;5.90;;;22.00;99.90;;;;;;5072642;28;20150;-62
2021/06/16 00:59:11;;;;;;;11.27;6.40;;;22.00;99.90;;;;;;5088105;28;20055;-62
2021/06/16 01:01:45;;;;;;;14.15;6.28;;;21.90;99.90;;;;;;5088208;28;20484;-62
2021/06/16 01:04:30;;;;;;;9.73;5.93;;;21.80;99.90;;;;;;5072293;28;20109;-62
2021/06/16 01:07:28;;;;;;;11.27;5.90;;;21.80;99.90;;;;;;5073627;28;20476;-61
2021/06/16 01:10:02;;;;;;;7.90;6.15;;;21.80;99.90;;;;;;5072117;28;20043;-62
2021/06/16 01:13:14;;;;;;;12.02;6.25;;;21.80;99.90;;;;;;5072409;28;20043;-63
2021/06/16 01:16:02;;;;;;;10.82;6.18;;;21.70;99.90;;;;;;5072692;28;20028;-63
2021/06/16 01:18:35;;;;;;;9.82;6.25;;;21.70;99.90;;;;;;5088082;28;20511;-62
2021/06/16 01:21:02;;;;;;;10.23;5.97;;;21.70;99.90;;;;;;5087445;28;20036;-62
2021/06/16 01:24:01;;;;;;;9.73;6.32;;;21.70;99.90;;;;;;5087562;28;20366;-62
2021/06/16 01:26:39;;;;;;;7.60;5.53;;;21.60;99.90;;;;;;5085932;28;20402;-62
2021/06/16 01:29:34;;;;;;;9.90;6.40;;;21.50;99.90;;;;;;5072372;28;20040;-61
2021/06/16 01:32:01;;;;;;;11.65;6.35;;;21.50;99.90;;;;;;5072238;28;20056;-61
2021/06/16 01:34:28;;;;;;;10.00;5.90;;;21.50;99.90;;;;;;5072295;28;20032;-61
2021/06/16 01:36:57;;;;;;;9.20;6.30;;;21.60;99.90;;;;;;5087730;28;20039;-62
2021/06/16 01:39:28;;;;;;;10.65;6.53;;;21.50;99.90;;;;;;5087582;28;20508;-61
2021/06/16 01:41:58;;;;;;;10.45;6.78;;;21.50;99.90;;;;;;5087505;28;20032;-62
2021/06/16 01:44:25;;;;;;;11.48;6.13;;;21.50;99.90;;;;;;5087357;28;20036;-61
2021/06/16 01:46:53;;;;;;;7.72;6.22;;;21.50;99.90;;;;;;5071996;28;20031;-61
2021/06/16 01:49:24;;;;;;;12.77;6.53;;;21.50;99.90;;;;;;5087641;28;20036;-61
2021/06/16 01:51:52;;;;;;;9.63;6.50;;;21.40;99.90;;;;;;5087547;28;20362;-61
2021/06/16 01:54:19;;;;;;;11.57;6.75;;;21.30;99.90;;;;;;5087619;28;20033;-61
2021/06/16 01:56:47;;;;;;;8.77;6.63;;;21.00;99.90;;;;;;5070708;28;20035;-61
2021/06/16 01:59:14;;;;;;;11.45;6.93;;;20.90;99.90;;;;;;5087370;28;20028;-61
2021/06/16 02:01:39;;;;;;;9.98;6.95;;;21.00;99.90;;;;;;5087408;28;20036;-61
2021/06/16 02:04:06;;;;;;;9.52;6.63;;;21.00;99.90;;;;;;5087306;28;20024;-61
2021/06/16 02:06:40;;;;;;;10.88;7.18;;;20.90;99.90;;;;;;5087649;28;20064;-61
2021/06/16 02:09:11;;;;;;;10.70;6.47;;;20.90;99.90;;;;;;5071839;28;20029;-62
2021/06/16 02:11:40;;;;;;;10.10;6.32;;;20.90;99.90;;;;;;5086971;28;20033;-61
2021/06/16 02:14:11;;;;;;;7.78;6.10;;;20.90;99.90;;;;;;5071829;28;20103;-61
2021/06/16 02:16:49;;;;;;;9.00;5.97;;;20.90;99.90;;;;;;5087008;28;20050;-61
2021/06/16 02:19:21;;;;;;;8.95;6.63;;;21.00;99.90;;;;;;5071837;28;20578;-62
2021/06/16 02:21:47;;;;;;;8.88;6.13;;;21.00;99.90;;;;;;5087090;28;20044;-61
2021/06/16 02:24:13;;;;;;;9.48;6.60;;;21.00;99.90;;;;;;5071838;28;20373;-61
2021/06/16 02:26:40;;;;;;;10.13;6.50;;;20.90;99.90;;;;;;5087257;28;20037;-61
2021/06/16 02:29:08;;;;;;;12.50;6.38;;;21.00;99.90;;;;;;5071653;28;20073;-61
2021/06/16 02:31:34;;;;;;;19.27;7.00;;;21.10;99.90;;;;;;5071368;28;20048;-61
2021/06/16 02:34:01;;;;;;;10.15;6.72;;;21.10;99.90;;;;;;5071879;28;20473;-61
2021/06/16 02:36:30;;;;;;;11.55;7.13;;;21.30;99.90;;;;;;5087025;28;20032;-61
2021/06/16 02:39:05;;;;;;;10.27;7.07;;;21.30;99.90;;;;;;5074089;28;20036;-61
2021/06/16 02:41:31;;;;;;;11.25;6.40;;;21.20;99.90;;;;;;5075342;28;20545;-61
2021/06/16 02:43:58;;;;;;;9.70;6.20;;;21.20;99.90;;;;;;5090755;28;20024;-61
2021/06/16 02:46:26;;;;;;;10.95;7.10;;;21.20;99.90;;;;;;5090821;28;20040;-62
2021/06/16 02:48:53;;;;;;;10.77;6.80;;;21.00;99.90;;;;;;5090622;28;20130;-62
2021/06/16 02:51:20;;;;;;;11.88;7.32;;;21.00;99.90;;;;;;5090712;28;20036;-62
2021/06/16 02:53:47;;;;;;;14.70;7.32;;;21.10;99.90;;;;;;5075190;28;20028;-62
2021/06/16 02:56:14;;;;;;;12.63;7.53;;;21.10;99.90;;;;;;5074757;28;20036;-62
2021/06/16 02:58:44;;;;;;;9.93;6.90;;;20.90;99.90;;;;;;5090549;28;20028;-62
2021/06/16 03:01:19;;;;;;;12.02;7.05;;;20.90;99.90;;;;;;5090134;28;20536;-61
2021/06/16 03:03:50;;;;;;;10.82;6.65;;;21.00;99.90;;;;;;5075030;28;20036;-60
2021/06/16 03:06:21;;;;;;;11.20;7.85;;;21.00;99.90;;;;;;5090059;28;20068;-61
2021/06/16 03:08:48;;;;;;;;;;;21.00;99.90;;;;;;5075107;28;20039;-61
2021/06/16 03:11:16;;;;;;;12.45;6.85;;;20.90;99.90;;;;;;5074575;28;19935;-60
2021/06/16 03:13:45;;;;;;;9.27;6.47;;;20.90;99.90;;;;;;5074561;28;20041;-61
2021/06/16 03:16:12;;;;;;;15.73;8.20;;;20.90;99.90;;;;;;5074576;28;20036;-61
2021/06/16 03:18:38;;;;;;;13.35;7.63;;;20.80;99.90;;;;;;5090268;28;20387;-61
2021/06/16 03:21:05;;;;;;;11.80;7.63;;;20.70;99.90;;;;;;5074291;28;20469;-61
2021/06/16 03:23:32;;;;;;;13.27;7.45;;;20.60;99.90;;;;;;5090131;28;20097;-61
2021/06/16 03:25:59;;;;;;;10.35;7.82;;;20.60;99.90;;;;;;5090231;28;20051;-61
2021/06/16 03:28:28;;;;;;;11.23;7.90;;;20.60;99.90;;;;;;5089570;28;20380;-61
2021/06/16 03:30:57;;;;;;;11.02;7.82;;;20.50;99.90;;;;;;5089501;28;20044;-62
2021/06/16 03:33:24;;;;;;;12.18;7.97;;;20.40;99.90;;;;;;5074258;28;20024;-61
2021/06/16 03:35:50;;;;;;;13.98;7.15;;;20.40;99.90;;;;;;5089940;28;20107;-61
2021/06/16 03:38:17;;;;;;;11.02;7.32;;;20.30;99.90;;;;;;5089631;28;20120;-61
2021/06/16 03:40:44;;;;;;;11.57;8.10;;;20.30;99.90;;;;;;5074276;28;20040;-61
2021/06/16 03:43:11;;;;;;;9.65;6.75;;;20.40;99.90;;;;;;5089433;28;20542;-61
2021/06/16 03:45:41;;;;;;;10.07;7.18;;;20.40;99.90;;;;;;5073746;28;20032;-61
2021/06/16 03:48:09;;;;;;;10.85;8.15;;;20.30;99.90;;;;;;5071825;28;20036;-61
2021/06/16 03:50:38;;;;;;;12.77;7.00;;;20.30;99.90;;;;;;5072335;28;20024;-60
2021/06/16 03:53:08;;;;;;;12.57;8.00;;;20.40;99.90;;;;;;5065908;28;20512;-61
2021/06/16 03:55:34;;;;;;;14.77;8.13;;;20.40;99.90;;;;;;5073084;28;20066;-62
2021/06/16 03:58:00;;;;;;;8.98;6.78;;;20.40;99.90;;;;;;5072672;28;20028;-58
2021/06/16 04:00:26;;;;;;;10.15;7.20;;;20.40;99.90;;;;;;5072183;28;20025;-58
2021/06/16 04:02:52;;;;;;;11.23;7.68;;;20.40;99.90;;;;;;5073891;28;20036;-59
2021/06/16 04:05:19;;;;;;;10.57;7.30;;;20.50;99.90;;;;;;5072233;28;20031;-57
2021/06/16 04:07:51;;;;;;;12.82;7.32;;;20.50;99.90;;;;;;5072188;28;20393;-59
2021/06/16 04:10:22;;;;;;;13.32;7.57;;;20.50;99.90;;;;;;5072172;28;20089;-58
2021/06/16 04:12:48;;;;;;;12.45;7.70;;;20.30;99.90;;;;;;5073672;28;20036;-57
2021/06/16 04:15:17;;;;;;;10.60;7.25;;;20.40;99.90;;;;;;5073559;28;20036;-59
2021/06/16 04:17:44;;;;;;;9.82;7.00;;;20.50;99.90;;;;;;5088828;28;20028;-58
2021/06/16 04:20:11;;;;;;;13.85;7.72;;;20.50;99.90;;;;;;5073451;28;20130;-57
2021/06/16 04:22:37;;;;;;;11.40;6.93;;;20.60;99.90;;;;;;5073436;28;20109;-59
2021/06/16 04:25:05;;;;;;;9.77;7.32;;;20.70;99.90;;;;;;5073406;28;20032;-58
2021/06/16 04:27:30;;;;;;;11.90;7.28;;;20.70;99.90;;;;;;5072001;28;20064;-58
2021/06/16 04:29:56;;;;;;;12.90;7.32;;;20.70;99.90;;;;;;5073030;28;20052;-59
2021/06/16 04:32:22;;;;;;;9.75;7.13;;;20.70;99.90;;;;;;5071984;28;20532;-59
2021/06/16 04:34:48;;;;;;;11.23;7.80;;;20.80;99.90;;;;;;5073214;28;20419;-57
2021/06/16 04:37:13;;;;;;;11.07;7.25;;;20.80;99.90;;;;;;5073220;28;20037;-57
2021/06/16 04:39:39;;;;;;;11.65;6.97;;;20.80;99.90;;;;;;5072603;28;20089;-58
2021/06/16 04:42:06;;;;;;;13.38;6.90;;;21.00;99.90;;;;;;5072891;28;20040;-59
2021/06/16 04:44:32;;;;;;;12.88;7.50;;;20.90;99.90;;;;;;5072863;28;20032;-57
2021/06/16 04:46:58;;;;;;;14.23;6.65;;;21.10;99.90;;;;;;5072909;28;20033;-55
2021/06/16 04:49:25;;;;;;;8.13;6.10;;;21.10;99.90;;;;;;5072621;28;20037;-56
2021/06/16 04:51:51;;;;;;;13.30;6.95;;;21.00;99.90;;;;;;5072628;28;20656;-55
2021/06/16 04:54:16;;;;;;;13.40;7.65;;;21.00;99.90;;;;;;5072525;28;20044;-56
2021/06/16 04:56:42;;;;;;;13.73;6.65;;;21.20;99.90;;;;;;5072694;28;20032;-57
2021/06/16 04:59:09;;;;;;;10.75;6.13;;;21.30;99.90;;;;;;5072380;28;20025;-57
2021/06/16 05:01:36;;;;;;;11.10;7.00;;;21.60;99.90;;;;;;5071994;28;20497;-58
2021/06/16 05:04:03;;;;;;;11.68;6.95;;;21.50;99.90;;;;;;5071238;28;20533;-57
2021/06/16 05:06:28;;;;;;;11.18;7.13;;;21.50;99.90;;;;;;5072241;28;20040;-60
2021/06/16 05:08:54;;;;;;;16.30;9.13;;;21.60;99.90;;;;;;5071389;28;20716;-59
2021/06/16 05:11:20;;;;;;;10.82;7.55;;;21.30;99.90;;;;;;5072263;28;20043;-59
2021/06/16 05:13:46;;;;;;;10.63;7.60;;;21.40;99.90;;;;;;5072330;28;20036;-59
2021/06/16 05:16:12;;;;;;;11.43;7.50;;;21.40;99.90;;;;;;5070290;28;20055;-61
2021/06/16 05:18:42;;;;;;;10.70;7.43;;;21.60;99.90;;;;;;5052089;28;20037;-58
2021/06/16 05:21:07;;;;;;;14.45;8.20;;;21.70;99.90;;;;;;5067630;28;20029;-58
2021/06/16 05:23:33;;;;;;;11.25;7.18;;;21.80;99.90;;;;;;5060373;28;20058;-58
2021/06/16 05:25:59;;;;;;;13.82;9.00;;;21.80;99.90;;;;;;5054225;28;20039;-59
2021/06/16 05:28:25;;;;;;;10.82;7.38;;;21.80;99.90;;;;;;5072152;28;20107;-59
2021/06/16 05:30:51;;;;;;;9.70;6.85;;;21.70;99.90;;;;;;5071881;28;20051;-58
2021/06/16 05:33:16;;;;;;;11.35;7.18;;;21.80;99.90;;;;;;5087935;28;20032;-58
2021/06/16 05:35:42;;;;;;;18.10;7.95;;;21.80;99.90;;;;;;5087816;28;20607;-58
2021/06/16 05:38:11;;;;;;;10.90;7.65;;;21.80;99.90;;;;;;5072284;28;20070;-57
2021/06/16 05:40:37;;;;;;;10.35;6.97;;;21.80;99.90;;;;;;5071975;28;20085;-57
2021/06/16 05:43:03;;;;;;;14.75;9.50;;;21.90;99.90;;;;;;5072273;28;20040;-56
2021/06/16 05:45:29;;;;;;;14.90;7.43;;;21.90;99.90;;;;;;5070527;28;20025;-57
2021/06/16 05:47:55;;;;;;;18.25;9.95;;;21.90;99.90;;;;;;5072147;28;20052;-57
2021/06/16 05:50:21;;;;;;;17.20;7.95;;;21.90;99.90;;;;;;5071802;28;20028;-58
2021/06/16 05:52:47;;;;;;;12.38;7.70;;;21.90;99.90;;;;;;5072043;28;20085;-58
2021/06/16 05:55:17;;;;;;;12.07;7.57;;;21.90;99.90;;;;;;5071976;28;20029;-56
2021/06/16 05:57:43;;;;;;;10.57;7.13;;;22.00;99.90;;;;;;5070533;28;20068;-58
2021/06/16 06:00:10;;;;;;;15.25;7.47;;;21.80;99.90;;;;;;5087750;28;20103;-57
2021/06/16 06:02:36;;;;;;;11.27;7.40;;;21.90;99.90;;;;;;5069844;28;20028;-58
2021/06/16 06:05:04;;;;;;;13.68;7.60;;;21.90;99.90;;;;;;5071645;28;20461;-58
2021/06/16 06:07:30;;;;;;;13.38;7.78;;;22.00;99.90;;;;;;5070133;28;20093;-58
2021/06/16 06:09:56;;;;;;;15.48;8.63;;;22.20;99.90;;;;;;5071576;28;20025;-56
2021/06/16 06:12:22;;;;;;;15.60;7.15;;;22.00;99.90;;;;;;5071930;28;20472;-59
2021/06/16 06:14:48;;;;;;;10.25;6.97;;;22.00;99.90;;;;;;5075592;28;20035;-58
2021/06/16 06:17:14;;;;;;;12.02;7.07;;;21.80;99.90;;;;;;5075457;28;20115;-58
2021/06/16 06:19:41;;;;;;;15.15;7.63;;;22.00;99.90;;;;;;5075528;28;20036;-57
2021/06/16 06:22:07;;;;;;;10.55;6.97;;;22.10;99.90;;;;;;5075212;28;20040;-57
2021/06/16 06:24:33;;;;;;;16.15;7.53;;;22.10;99.90;;;;;;5075368;28;20025;-57
2021/06/16 06:26:58;;;;;;;14.48;6.00;;;22.20;99.90;;;;;;5075634;28;20055;-57
2021/06/16 06:29:26;;;;;;;12.50;6.10;;;22.50;99.90;;;;;;5073818;28;20029;-58
2021/06/16 06:31:53;;;;;;;16.83;6.90;;;22.50;99.90;;;;;;5075490;28;20045;-58
2021/06/16 06:34:19;;;;;;;13.30;6.80;;;22.40;99.90;;;;;;5075245;28;20032;-58
2021/06/16 06:36:45;;;;;;;12.80;6.60;;;22.40;99.90;;;;;;5075257;28;20398;-58
2021/06/16 06:39:11;;;;;;;14.73;6.72;;;22.50;99.90;;;;;;5073999;28;20020;-58
2021/06/16 06:41:37;;;;;;;15.30;7.07;;;22.60;99.90;;;;;;5075178;28;20033;-59
2021/06/16 06:44:03;;;;;;;12.73;8.10;;;22.60;99.90;;;;;;5075318;28;20035;-58
2021/06/16 06:46:29;;;;;;;10.02;5.95;;;22.70;99.90;;;;;;5075087;28;20029;-58
2021/06/16 06:48:55;;;;;;;17.95;7.60;;;22.90;99.90;;;;;;5075131;28;20028;-59
2021/06/16 06:51:21;;;;;;;14.35;7.70;;;23.00;99.90;;;;;;5074565;28;20029;-58
2021/06/16 06:53:47;;;;;;;16.00;8.70;;;22.80;99.90;;;;;;5074756;28;20028;-59
2021/06/16 06:56:12;;;;;;;19.88;10.77;;;23.00;99.90;;;;;;5075085;28;20032;-57
2021/06/16 06:58:38;;;;;;;19.80;8.20;;;23.10;99.90;;;;;;5074888;28;20031;-60
2021/06/16 07:01:04;;;;;;;11.75;6.30;;;23.10;99.90;;;;;;5074936;28;20116;-59
2021/06/16 07:03:32;;;;;;;15.00;7.22;;;23.20;99.90;;;;;;5074701;28;20376;-58
2021/06/16 07:05:59;;;;;;;14.80;6.43;;;23.20;99.90;;;;;;5090416;28;20366;-58
2021/06/16 07:08:24;;;;;;;10.50;6.30;;;23.40;99.90;;;;;;5074498;28;20035;-58
2021/06/16 07:10:51;;;;;;;15.23;6.55;;;23.40;99.90;;;;;;5074458;28;20032;-59
2021/06/16 07:13:17;;;;;;;17.13;6.88;;;23.50;99.90;;;;;;5074717;28;20071;-59
2021/06/16 07:15:43;;;;;;;11.57;5.55;;;23.50;99.90;;;;;;5074712;28;20105;-59
2021/06/16 07:18:09;;;;;;;11.40;5.43;;;23.80;99.90;;;;;;5074684;28;20096;-58
2021/06/16 07:20:34;;;;;;;9.35;6.25;;;23.80;99.90;;;;;;5074453;28;20028;-59
2021/06/16 07:23:00;;;;;;;9.02;5.07;;;23.90;99.90;;;;;;5074556;28;20020;-59
2021/06/16 07:25:27;;;;;;;10.50;5.00;;;24.10;99.90;;;;;;5072857;28;20036;-59
2021/06/16 07:27:52;;;;;;;8.73;4.90;;;24.20;99.90;;;;;;5074561;28;20448;-58
2021/06/16 07:30:19;;;;;;;12.75;5.32;;;24.30;99.90;;;;;;5073952;28;20127;-59
2021/06/16 07:32:45;;;;;;;13.93;5.40;;;24.40;99.90;;;;;;5074328;28;20123;-59
2021/06/16 07:35:13;;;;;;;7.72;4.63;;;24.50;99.90;;;;;;5074320;28;20028;-59
2021/06/16 07:37:39;;;;;;;9.52;4.38;;;24.60;99.90;;;;;;5073944;28;20048;-59
2021/06/16 07:40:08;;;;;;;7.45;4.90;;;24.70;99.90;;;;;;5074232;28;20690;-59
2021/06/16 07:42:38;;;;;;;24.75;7.75;;;24.80;99.90;;;;;;5074019;28;20111;-58
2021/06/16 07:45:06;;;;;;;8.55;4.55;;;24.90;99.90;;;;;;5074222;28;20078;-59
2021/06/16 07:47:32;;;;;;;8.95;5.03;;;24.80;99.90;;;;;;5089565;28;20036;-59
2021/06/16 07:49:58;;;;;;;9.68;4.43;;;24.70;99.90;;;;;;5074029;28;20311;-59
2021/06/16 07:52:24;;;;;;;11.02;5.05;;;24.80;99.90;;;;;;5073919;28;20484;-59
2021/06/16 07:54:49;;;;;;;10.15;5.57;;;24.90;99.90;;;;;;5073674;28;20486;-60
2021/06/16 07:57:15;;;;;;;9.98;4.85;;;25.00;99.90;;;;;;5073949;28;20079;-59
2021/06/16 07:59:41;;;;;;;6.82;4.20;;;25.00;99.90;;;;;;5073698;28;20049;-59
2021/06/16 08:02:07;;;;;;;13.27;4.57;;;25.20;99.90;;;;;;5073779;28;20043;-59
2021/06/16 08:04:37;;;;;;;9.43;4.97;;;25.20;99.90;;;;;;5072481;28;20020;-59
2021/06/16 08:07:03;;;;;;;7.82;4.40;;;25.30;99.90;;;;;;5073400;28;20043;-59
2021/06/16 08:09:29;;;;;;;7.60;4.93;;;25.30;99.90;;;;;;5073363;28;20028;-60
2021/06/16 08:11:54;;;;;;;8.32;4.80;;;25.40;99.90;;;;;;5073327;28;20502;-58
2021/06/16 08:14:20;;;;;;;5.93;3.55;;;25.60;99.70;;;;;;5073543;28;20121;-58
2021/06/16 08:16:46;;;;;;;6.85;3.55;;;25.50;98.00;;;;;;5073379;28;20028;-59
2021/06/16 08:19:12;;;;;;;9.52;3.88;;;25.60;98.20;;;;;;5073055;28;20025;-58
2021/06/16 08:21:38;;;;;;;5.85;3.95;;;25.80;97.50;;;;;;5073382;28;20103;-59
2021/06/16 08:24:04;;;;;;;6.35;3.97;;;25.80;97.20;;;;;;5073277;28;20029;-58
2021/06/16 08:26:30;;;;;;;7.38;3.75;;;25.80;97.50;;;;;;5073308;28;20033;-59
2021/06/16 08:28:56;;;;;;;9.73;3.47;;;25.90;97.70;;;;;;5073270;28;20484;-59
2021/06/16 08:31:24;;;;;;;9.57;3.80;;;26.00;97.30;;;;;;5072668;28;20052;-59
2021/06/16 08:33:49;;;;;;;6.80;3.55;;;26.20;97.10;;;;;;5072963;28;20107;-60
2021/06/16 08:36:16;;;;;;;5.15;3.85;;;26.10;95.50;;;;;;5070910;28;20136;-59
2021/06/16 08:38:41;;;;;;;5.45;3.63;;;26.20;96.00;;;;;;5072855;28;20104;-59
2021/06/16 08:41:08;;;;;;;7.75;3.63;;;26.40;96.10;;;;;;5073026;28;20056;-60
2021/06/16 08:43:43;;;;;;;8.32;3.63;;;26.50;96.10;;;;;;5072771;28;20059;-59
2021/06/16 08:46:13;;;;;;;5.03;3.10;;;26.70;94.70;;;;;;5071867;28;20037;-58
2021/06/16 08:48:41;;;;;;;7.80;3.03;;;26.80;94.20;;;;;;5072443;28;20037;-59
2021/06/16 08:51:08;;;;;;;4.75;3.30;;;26.80;94.40;;;;;;5072882;28;20481;-57
2021/06/16 08:53:35;;;;;;;5.13;3.22;;;27.00;93.80;;;;;;5072580;28;20517;-59
2021/06/16 08:56:02;;;;;;;6.18;3.20;;;27.20;93.60;;;;;;5072841;28;20032;-58
2021/06/16 08:58:28;;;;;;;5.40;3.17;;;27.30;93.20;;;;;;5071615;28;20033;-57
2021/06/16 09:00:54;;;;;;;5.30;3.20;;;27.40;93.30;;;;;;5072537;28;20032;-57
2021/06/16 09:03:20;;;;;;;7.18;3.83;;;27.30;93.10;;;;;;5072462;28;20029;-56
2021/06/16 09:05:50;;;;;;;6.53;3.70;;;27.40;92.70;;;;;;5072286;28;20500;-58
2021/06/16 09:08:23;;;;;;;5.03;2.90;;;27.30;93.00;;;;;;5072608;28;20032;-59
2021/06/16 09:10:52;;;;;;;7.38;3.30;;;27.40;91.90;;;;;;5072399;28;20624;-57
2021/06/16 09:13:33;;;;;;;8.20;3.10;;;27.50;92.20;;;;;;5071357;28;20089;-59
2021/06/16 09:16:01;;;;;;;8.35;3.25;;;27.50;92.40;;;;;;5072600;28;20478;-59
2021/06/16 09:18:41;;;;;;;8.02;3.13;;;27.60;92.50;;;;;;5072567;28;20033;-58
2021/06/16 09:21:07;;;;;;;7.33;3.53;;;27.80;91.80;;;;;;5071480;28;20020;-59
2021/06/16 09:23:32;;;;;;;8.43;3.10;;;28.00;92.10;;;;;;5063944;28;20484;-60
2021/06/16 09:26:11;;;;;;;7.22;2.97;;;28.00;91.60;;;;;;5052387;28;20033;-59
2021/06/16 09:28:48;;;;;;;11.95;3.17;;;28.10;91.90;;;;;;5052160;28;20025;-59
2021/06/16 09:31:16;;;;;;;5.72;2.53;;;28.20;90.20;;;;;;5050792;28;20045;-59
2021/06/16 09:33:43;;;;;;;4.38;2.72;;;28.30;90.00;;;;;;5052177;28;20029;-59
2021/06/16 09:36:17;;;;;;;3.78;2.70;;;28.40;89.60;;;;;;5052053;28;20041;-60
2021/06/16 09:38:47;;;;;;;4.15;2.50;;;28.40;90.10;;;;;;5050627;28;20041;-66
2021/06/16 09:41:16;;;;;;;5.03;2.60;;;28.50;88.80;;;;;;5052028;28;20029;-66
2021/06/16 09:43:42;;;;;;;3.75;2.70;;;28.50;88.00;;;;;;5052112;28;20043;-67
2021/06/16 09:46:11;;;;;;;4.72;2.45;;;28.50;89.40;;;;;;5067443;28;20029;-67
2021/06/16 09:48:45;;;;;;;3.70;2.30;;;28.70;89.40;;;;;;5060806;28;20060;-66
2021/06/16 09:51:17;;;;;;;6.65;2.50;;;28.80;87.60;;;;;;5076367;28;20040;-67
2021/06/16 09:54:02;;;;;;;4.85;2.50;;;29.00;88.00;;;;;;5076157;28;20036;-66
2021/06/16 09:56:32;;;;;;;5.53;2.50;;;29.30;84.70;;;;;;5076133;28;20028;-67
2021/06/16 09:58:58;;;;;;;6.67;2.80;;;29.30;85.60;;;;;;5075523;28;20500;-67
2021/06/16 10:01:51;;;;;;;4.03;2.42;;;29.40;85.50;;;;;;5074349;28;20449;-67
2021/06/16 10:04:47;;;;;;;6.93;2.83;;;29.40;84.00;;;;;;5076155;28;20043;-67
2021/06/16 10:07:17;;;;;;;5.60;2.40;;;29.40;82.30;;;;;;5073634;28;20036;-66
2021/06/16 10:09:53;;;;;;;5.45;2.45;;;29.40;81.30;;;;;;5075054;28;20036;-66
2021/06/16 10:12:29;;;;;;;4.15;2.58;;;29.60;81.30;;;;;;5075832;28;20480;-67
2021/06/16 10:14:56;;;;;;;3.65;2.10;;;29.70;79.80;;;;;;5074520;28;20115;-66
2021/06/16 10:17:22;;;;;;;4.72;2.40;;;29.80;80.30;;;;;;5074553;28;20041;-66
2021/06/16 10:19:49;;;;;;;5.18;2.05;;;29.80;79.20;;;;;;5073895;28;20392;-66
2021/06/16 10:22:16;;;;;;;2.80;2.00;;;29.90;78.10;;;;;;5075691;28;20039;-66
2021/06/16 10:24:42;;;;;;;4.25;1.92;;;30.10;76.30;;;;;;5075182;28;20028;-66
2021/06/16 10:27:32;;;;;;;4.38;1.95;;;30.40;77.60;;;;;;5074450;28;20481;-66
2021/06/16 10:30:13;;;;;;;4.60;2.00;;;30.60;74.30;;;;;;5075318;28;20135;-66
2021/06/16 10:32:46;;;;;;;5.47;1.88;;;30.70;73.00;;;;;;5075303;28;20071;-66
2021/06/16 10:35:22;;;;;;;6.80;1.90;;;30.70;72.00;;;;;;5090986;28;20040;-66
2021/06/16 10:37:47;;;;;;;2.53;1.75;;;30.80;71.00;;;;;;5090741;28;20029;-66
2021/06/16 10:40:14;;;;;;;2.88;1.73;;;30.90;70.10;;;;;;5075352;28;20469;-66
2021/06/16 10:42:58;;;;;;;4.93;2.03;;;30.80;70.10;;;;;;5075103;28;20090;-66
2021/06/16 10:45:37;;;;;;;4.53;2.22;;;31.10;69.60;;;;;;5075369;28;20139;-65
2021/06/16 10:48:09;;;;;;;4.38;2.35;;;31.20;70.40;;;;;;5090628;28;20071;-66
2021/06/16 10:50:53;;;;;;;3.35;2.05;;;31.30;68.30;;;;;;5073574;28;20032;-66
2021/06/16 10:53:24;;;;;;;3.90;1.63;;;31.60;68.00;;;;;;5073786;28;20046;-65
2021/06/16 10:55:55;;;;;;;4.07;1.80;;;31.60;66.90;;;;;;5073564;28;20070;-66
2021/06/16 10:58:29;;;;;;;6.68;1.50;;;31.60;67.50;;;;;;5074033;28;20037;-66
2021/06/16 11:01:17;;;;;;;3.97;1.90;;;31.70;66.40;;;;;;5072785;28;20547;-66
2021/06/16 11:03:54;;;;;;;4.55;1.52;;;31.60;65.90;;;;;;5074873;28;20044;-67
2021/06/16 11:06:35;;;;;;;2.70;1.50;;;31.60;64.80;;;;;;5074863;28;20032;-66
2021/06/16 11:09:07;;;;;;;3.10;1.60;;;31.50;64.80;;;;;;5074242;28;20024;-66
2021/06/16 11:11:50;;;;;;;5.78;1.70;;;31.40;62.60;;;;;;5074756;28;20490;-66
2021/06/16 11:14:37;;;;;;;5.53;1.60;;;31.50;65.50;;;;;;5074764;28;20044;-67
2021/06/16 11:17:08;;;;;;;3.45;1.83;;;31.90;63.20;;;;;;5074302;28;20397;-66
2021/06/16 11:19:37;;;;;;;5.68;1.48;;;31.90;63.20;;;;;;5073463;28;20043;-66
2021/06/16 11:22:13;;;;;;;3.88;1.80;;;32.10;63.70;;;;;;5074245;28;20489;-66
2021/06/16 11:25:01;;;;;;;2.67;1.40;;;32.10;64.00;;;;;;5074190;28;20037;-65
2021/06/16 11:27:51;;;;;;;2.30;1.30;;;32.20;60.90;;;;;;5074086;28;20111;-67
2021/06/16 11:30:55;;;;;;;4.05;1.70;;;32.10;61.30;;;;;;5073911;28;20055;-66
2021/06/16 11:33:25;;;;;;;3.47;1.20;;;32.40;61.40;;;;;;5074192;28;20041;-66
2021/06/16 11:36:01;;;;;;;;;;;32.50;59.60;;;;;;5074807;28;20037;-66
2021/06/16 11:38:30;;;;;;;4.00;1.38;;;32.50;57.70;;;;;;5074077;28;19990;-66
2021/06/16 11:41:17;;;;;;;2.37;1.03;;;32.30;56.90;;;;;;5072852;28;20037;-66
2021/06/16 11:43:56;;;;;;;4.45;1.77;;;32.20;57.30;;;;;;5072904;28;20040;-65
2021/06/16 11:46:26;;;;;;;6.22;2.05;;;32.30;58.20;;;;;;5074097;28;20060;-66
2021/06/16 11:49:11;;;;;;;2.03;1.20;;;32.20;59.00;;;;;;5073950;28;20469;-67
2021/06/16 11:51:45;;;;;;;2.92;1.40;;;32.40;59.00;;;;;;5072566;28;20040;-65
2021/06/16 11:54:23;;;;;;;3.17;1.45;;;32.70;59.50;;;;;;5073661;28;20033;-66
2021/06/16 11:56:49;;;;;;;3.42;1.90;;;32.70;58.10;;;;;;5072492;28;20036;-66
2021/06/16 11:59:15;;;;;;;2.58;1.45;;;32.70;57.50;;;;;;5073669;28;20086;-65
2021/06/16 12:01:41;;;;;;;2.28;1.45;;;33.00;59.30;;;;;;5072811;28;20468;-65
2021/06/16 12:04:13;;;;;;;3.53;1.90;;;33.00;56.90;;;;;;5073138;28;20033;-66
2021/06/16 12:06:40;;;;;;;4.22;1.55;;;32.70;59.00;;;;;;5073576;28;20040;-66
2021/06/16 12:09:06;;;;;;;2.72;1.77;;;32.80;57.50;;;;;;5073210;28;20043;-66
2021/06/16 12:11:36;;;;;;;3.72;1.40;;;33.10;57.20;;;;;;5072402;28;20024;-66
2021/06/16 12:14:09;;;;;;;5.57;1.65;;;33.30;56.30;;;;;;5071830;28;20384;-66
2021/06/16 12:16:42;;;;;;;2.97;1.75;;;33.20;57.20;;;;;;5089259;28;20032;-66
2021/06/16 12:19:15;;;;;;;2.80;1.48;;;33.40;57.90;;;;;;5055593;28;20025;-66
2021/06/16 12:21:50;;;;;;;2.97;1.60;;;33.70;56.70;;;;;;5073483;28;20132;-66
2021/06/16 12:24:28;;;;;;;3.13;1.30;;;33.60;57.10;;;;;;5071743;28;20025;-67
2021/06/16 12:27:17;;;;;;;4.55;1.50;;;34.20;55.70;;;;;;5073154;28;20036;-67
2021/06/16 12:29:54;;;;;;;2.78;1.60;;;34.30;55.90;;;;;;5071693;28;20507;-67
2021/06/16 12:32:42;;;;;;;2.50;1.40;;;34.30;54.50;;;;;;5071645;28;20032;-67
2021/06/16 12:37:54;;;;;;;2.80;1.60;;;34.20;57.30;;;;;;5071779;28;20028;-66
2021/06/16 12:40:37;;;;;;;5.50;1.67;;;34.20;56.10;;;;;;5072521;28;20460;-67
2021/06/16 12:43:05;;;;;;;3.65;2.58;;;34.10;55.60;;;;;;5072963;28;20028;-66
2021/06/16 12:45:57;;;;;;;3.85;1.60;;;34.20;56.00;;;;;;5071819;28;20616;-66
2021/06/16 12:48:27;;;;;;;2.53;1.45;;;33.60;56.70;;;;;;5073002;28;20044;-66
2021/06/16 12:50:59;;;;;;;;;;;34.00;56.70;;;;;;5073261;28;20626;-66
2021/06/16 12:53:28;;;;;;;3.85;1.67;;;34.00;58.20;;;;;;5072877;28;20456;-66
2021/06/16 12:56:05;;;;;;;5.38;2.05;;;33.90;57.30;;;;;;5072615;28;20039;-66
2021/06/16 12:58:43;;;;;;;3.42;1.88;;;34.00;57.30;;;;;;5072401;28;20037;-67